createdAt,value
2022-12-26T00:00:57.428Z,101753.44
2022-12-26T00:03:24.639Z,101761.94
2022-12-26T00:05:51.605Z,101757.13
2022-12-26T00:08:18.735Z,101760.47
2022-12-26T00:10:45.583Z,101771.97
2022-12-26T00:13:39.837Z,101780.38
2022-12-26T00:15:59.553Z,101780.59
2022-12-26T00:18:26.514Z,101772.88
2022-12-26T00:20:53.801Z,101768.13
2022-12-26T00:23:20.689Z,101773.38
2022-12-26T00:25:47.616Z,101786.94
2022-12-26T00:28:14.630Z,101781.47
2022-12-26T00:30:41.540Z,101785.31
2022-12-26T00:33:08.379Z,101782.38
2022-12-26T00:35:35.280Z,101781.72
2022-12-26T00:38:02.252Z,101792.25
2022-12-26T00:40:29.665Z,101797.53
2022-12-26T00:42:56.572Z,101802.38
2022-12-26T00:45:23.520Z,101810.63
2022-12-26T00:47:50.434Z,101817.19
2022-12-26T00:50:17.774Z,101816.22
2022-12-26T00:52:44.617Z,101807.91
2022-12-26T00:55:11.492Z,101813.25
2022-12-26T00:57:38.390Z,101813.81
2022-12-26T01:00:05.933Z,101810.03
2022-12-26T01:02:38.736Z,101811.03
2022-12-26T01:05:09.425Z,101804.31
2022-12-26T01:08:21.561Z,101814.72
2022-12-26T01:10:24.733Z,101808.66
2022-12-26T01:12:52.091Z,101811.06
2022-12-26T01:15:19.619Z,101793.34
2022-12-26T01:17:47.296Z,101805.75
2022-12-26T01:20:14.342Z,101807.97
2022-12-26T01:22:41.362Z,101815.28
2022-12-26T01:25:08.931Z,101821.78
2022-12-26T01:27:35.829Z,101828.91
2022-12-26T01:30:02.940Z,101817.91
2022-12-26T01:32:29.829Z,101818.81
2022-12-26T01:34:56.895Z,101817.03
2022-12-26T01:37:24.058Z,101818.22
2022-12-26T01:39:52.398Z,101819.00
2022-12-26T01:42:22.093Z,101817.94
2022-12-26T01:45:07.168Z,101809.56
2022-12-26T01:47:51.782Z,101809.75
2022-12-26T01:50:27.789Z,101805.19
2022-12-26T01:52:58.646Z,101807.63
2022-12-26T01:55:27.016Z,101806.47
2022-12-26T01:58:05.517Z,101813.00
2022-12-26T02:00:33.571Z,101820.63
2022-12-26T02:03:19.236Z,101826.84
2022-12-26T02:05:46.416Z,101838.31
2022-12-26T02:08:17.417Z,101831.44
2022-12-26T02:10:55.807Z,101833.50
2022-12-26T02:13:24.004Z,101840.22
2022-12-26T02:15:50.947Z,101842.81
2022-12-26T02:18:17.974Z,101844.78
2022-12-26T02:21:10.014Z,101844.16
2022-12-26T02:23:55.360Z,101842.81
2022-12-26T02:26:40.093Z,101850.88
2022-12-26T02:29:12.924Z,101848.88
2022-12-26T02:32:05.840Z,101839.28
2022-12-26T02:34:56.813Z,101840.66
2022-12-26T02:37:35.694Z,101837.06
2022-12-26T02:40:17.828Z,101829.09
2022-12-26T02:42:47.879Z,101831.97
2022-12-26T02:45:36.418Z,101834.06
2022-12-26T02:48:13.632Z,101833.09
2022-12-26T02:51:39.570Z,101834.09
2022-12-26T02:54:38.062Z,101841.91
2022-12-26T02:57:27.425Z,101843.38
2022-12-26T03:00:36.120Z,101845.44
2022-12-26T03:03:28.166Z,101843.28
2022-12-26T03:06:19.544Z,101845.41
2022-12-26T03:09:06.849Z,101844.66
2022-12-26T03:11:58.211Z,101839.66
2022-12-26T03:14:57.357Z,101837.69
2022-12-26T03:17:32.628Z,101833.00
2022-12-26T03:20:11.325Z,101834.56
2022-12-26T03:22:49.234Z,101833.66
2022-12-26T03:25:55.694Z,101841.81
2022-12-26T03:28:23.473Z,101829.94
2022-12-26T03:30:52.088Z,101828.44
2022-12-26T03:33:45.933Z,101833.47
2022-12-26T03:36:41.699Z,101837.75
2022-12-26T03:39:47.028Z,101829.03
2022-12-26T03:43:15.579Z,101828.88
2022-12-26T03:46:22.890Z,101831.88
2022-12-26T03:49:29.694Z,101823.22
2022-12-26T03:52:28.749Z,101827.16
2022-12-26T03:55:40.294Z,101821.31
2022-12-26T03:59:09.030Z,101825.97
2022-12-26T04:01:58.389Z,101820.84
2022-12-26T04:04:48.040Z,101822.63
2022-12-26T04:07:56.002Z,101843.66
2022-12-26T04:10:50.007Z,101840.69
2022-12-26T04:13:40.620Z,101843.41
2022-12-26T04:16:36.640Z,101851.09
2022-12-26T04:19:35.400Z,101855.03
2022-12-26T04:22:29.652Z,101851.44
2022-12-26T04:25:50.251Z,101842.81
2022-12-26T04:28:38.545Z,101842.66
2022-12-26T04:31:41.266Z,101848.66
2022-12-26T04:34:34.204Z,101848.66
2022-12-26T04:37:23.372Z,101846.31
2022-12-26T04:40:13.090Z,101853.00
2022-12-26T04:43:02.346Z,101853.22
2022-12-26T04:45:49.801Z,101851.88
2022-12-26T04:48:36.344Z,101869.66
2022-12-26T04:51:03.128Z,101873.75
2022-12-26T04:53:29.985Z,101874.22
2022-12-26T04:55:56.980Z,101888.44
2022-12-26T04:58:24.481Z,101895.06
2022-12-26T05:00:51.408Z,101891.31
2022-12-26T05:03:36.800Z,101895.56
2022-12-26T05:06:22.059Z,101903.97
2022-12-26T05:09:07.665Z,101910.78
2022-12-26T05:11:35.566Z,101916.22
2022-12-26T05:14:02.735Z,101920.84
2022-12-26T05:16:48.249Z,101917.69
2022-12-26T05:19:35.792Z,101926.47
2022-12-26T05:22:23.280Z,101937.56
2022-12-26T05:25:08.967Z,101934.50
2022-12-26T05:27:56.911Z,101926.00
2022-12-26T05:30:24.889Z,101931.19
2022-12-26T05:33:10.239Z,101938.09
2022-12-26T05:35:37.899Z,101946.75
2022-12-26T05:38:05.134Z,101945.44
2022-12-26T05:40:32.371Z,101940.25
2022-12-26T05:42:59.310Z,101946.41
2022-12-26T05:45:26.371Z,101943.97
2022-12-26T05:48:00.954Z,101942.63
2022-12-26T05:50:28.870Z,101941.28
2022-12-26T05:52:59.692Z,101946.72
2022-12-26T05:55:26.763Z,101944.84
2022-12-26T05:57:53.808Z,101941.09
2022-12-26T06:00:21.378Z,101937.13
2022-12-26T06:02:48.889Z,101936.06
2022-12-26T06:05:16.149Z,101935.19
2022-12-26T06:07:43.081Z,101935.88
2022-12-26T06:10:10.581Z,101934.00
2022-12-26T06:12:37.517Z,101920.28
2022-12-26T06:15:04.814Z,101915.53
2022-12-26T06:17:32.030Z,101915.38
2022-12-26T06:19:58.952Z,101917.97
2022-12-26T06:22:25.966Z,101925.50
2022-12-26T06:24:52.866Z,101923.94
2022-12-26T06:27:19.720Z,101918.25
2022-12-26T06:29:46.650Z,101921.75
2022-12-26T06:32:13.588Z,101922.56
2022-12-26T06:34:40.614Z,101923.41
2022-12-26T06:37:07.648Z,101922.66
2022-12-26T06:39:34.699Z,101930.63
2022-12-26T06:42:01.649Z,101931.25
2022-12-26T06:44:28.535Z,101928.56
2022-12-26T06:46:55.393Z,101943.22
2022-12-26T06:49:26.207Z,101934.88
2022-12-26T06:51:55.664Z,101947.03
2022-12-26T06:54:22.690Z,101948.41
2022-12-26T06:56:49.555Z,101951.06
2022-12-26T06:59:16.432Z,101949.03
2022-12-26T07:01:43.423Z,101942.69
2022-12-26T07:04:13.331Z,101952.16
2022-12-26T07:06:40.329Z,101951.34
2022-12-26T07:09:11.033Z,101946.13
2022-12-26T07:11:40.509Z,101956.00
2022-12-26T07:14:08.261Z,101957.72
2022-12-26T07:16:36.433Z,101956.72
2022-12-26T07:19:04.533Z,101953.25
2022-12-26T07:21:37.988Z,101957.91
2022-12-26T07:24:09.054Z,101957.78
2022-12-26T07:26:35.992Z,101942.06
2022-12-26T07:29:02.924Z,101942.34
2022-12-26T07:31:29.899Z,101941.53
2022-12-26T07:33:57.271Z,101951.28
2022-12-26T07:36:25.359Z,101950.91
2022-12-26T07:38:52.643Z,101947.16
2022-12-26T07:41:38.494Z,101951.66
2022-12-26T07:44:06.311Z,101961.53
2022-12-26T07:46:34.155Z,101955.06
2022-12-26T07:49:01.509Z,101953.63
2022-12-26T07:51:28.463Z,101956.81
2022-12-26T07:53:55.364Z,101955.44
2022-12-26T07:56:22.286Z,101951.88
2022-12-26T07:58:50.411Z,101968.56
2022-12-26T08:01:17.914Z,101966.91
2022-12-26T08:03:45.216Z,101962.38
2022-12-26T08:06:12.222Z,101953.72
2022-12-26T08:08:40.330Z,101956.06
2022-12-26T08:11:15.423Z,101962.44
2022-12-26T08:13:42.478Z,101955.50
2022-12-26T08:16:12.204Z,101952.53
2022-12-26T08:18:39.211Z,101950.56
2022-12-26T08:21:06.115Z,101957.13
2022-12-26T08:23:33.978Z,101951.13
2022-12-26T08:26:06.117Z,101957.97
2022-12-26T08:28:33.102Z,101948.34
2022-12-26T08:31:00.452Z,101953.19
2022-12-26T08:33:27.932Z,101945.19
2022-12-26T08:35:54.952Z,101935.59
2022-12-26T08:38:21.845Z,101928.44
2022-12-26T08:40:56.472Z,101921.31
2022-12-26T08:44:03.000Z,101926.31
2022-12-26T08:46:13.094Z,101931.13
2022-12-26T08:48:41.195Z,101915.69
2022-12-26T08:51:12.634Z,101927.41
2022-12-26T08:53:39.846Z,101927.47
2022-12-26T08:56:08.658Z,101922.66
2022-12-26T08:58:35.744Z,101924.25
2022-12-26T09:01:08.205Z,101920.56
2022-12-26T09:03:35.259Z,101924.25
2022-12-26T09:06:06.221Z,101913.69
2022-12-26T09:08:35.063Z,101900.47
2022-12-26T09:11:04.376Z,101905.44
2022-12-26T09:13:32.825Z,101900.13
2022-12-26T09:16:12.185Z,101887.13
2022-12-26T09:18:40.023Z,101892.69
2022-12-26T09:21:10.079Z,101890.97
2022-12-26T09:23:38.291Z,101881.03
2022-12-26T09:26:07.714Z,101870.28
2022-12-26T09:28:35.291Z,101869.31
2022-12-26T09:31:07.788Z,101864.78
2022-12-26T09:33:37.774Z,101871.28
2022-12-26T09:36:14.581Z,101864.75
2022-12-26T09:38:43.198Z,101859.81
2022-12-26T09:41:22.117Z,101857.97
2022-12-26T09:43:59.826Z,101852.44
2022-12-26T09:46:26.698Z,101854.34
2022-12-26T09:49:03.485Z,101850.13
2022-12-26T09:51:33.554Z,101846.00
2022-12-26T09:54:04.669Z,101848.25
2022-12-26T09:57:01.666Z,101856.34
2022-12-26T09:59:26.248Z,101854.84
2022-12-26T10:01:53.916Z,101851.06
2022-12-26T10:04:30.550Z,101853.38
2022-12-26T10:07:16.587Z,101837.47
2022-12-26T10:10:10.680Z,101840.06
2022-12-26T10:13:07.854Z,101843.03
2022-12-26T10:15:52.458Z,101852.00
2022-12-26T10:18:40.248Z,101851.00
2022-12-26T10:21:28.765Z,101845.97
2022-12-26T10:24:03.303Z,101827.84
2022-12-26T10:26:35.301Z,101813.75
2022-12-26T10:29:04.691Z,101822.22
2022-12-26T10:31:48.273Z,101815.03
2022-12-26T10:34:15.180Z,101806.84
2022-12-26T10:36:50.930Z,101797.47
2022-12-26T10:39:33.798Z,101798.72
2022-12-26T10:42:11.199Z,101810.00
2022-12-26T10:44:40.628Z,101804.09
2022-12-26T10:47:19.875Z,101806.13
2022-12-26T10:49:48.521Z,101803.06
2022-12-26T10:52:18.562Z,101806.31
2022-12-26T10:54:51.581Z,101801.50
2022-12-26T10:57:41.545Z,101803.41
2022-12-26T11:00:25.989Z,101799.91
2022-12-26T11:03:08.908Z,101793.84
2022-12-26T11:06:06.466Z,101795.91
2022-12-26T11:08:40.736Z,101778.88
2022-12-26T11:11:46.289Z,101771.78
2022-12-26T11:14:40.442Z,101772.31
2022-12-26T11:17:34.265Z,101773.38
2022-12-26T11:20:10.755Z,101770.03
2022-12-26T11:22:38.629Z,101763.09
2022-12-26T11:25:14.805Z,101761.25
2022-12-26T11:27:45.665Z,101763.75
2022-12-26T11:30:19.323Z,101764.06
2022-12-26T11:33:08.396Z,101758.75
2022-12-26T11:35:48.610Z,101744.00
2022-12-26T11:38:39.104Z,101754.16
2022-12-26T11:41:31.764Z,101741.19
2022-12-26T11:44:14.122Z,101749.50
2022-12-26T11:46:55.894Z,101753.19
2022-12-26T11:49:34.514Z,101746.84
2022-12-26T11:52:23.139Z,101743.31
2022-12-26T11:54:51.364Z,101754.72
2022-12-26T11:57:28.310Z,101750.50
2022-12-26T11:59:55.868Z,101743.94
2022-12-26T12:02:31.130Z,101736.75
2022-12-26T12:05:02.764Z,101743.84
2022-12-26T12:07:38.757Z,101742.72
2022-12-26T12:10:35.584Z,101743.59
2022-12-26T12:13:24.081Z,101743.59
2022-12-26T12:16:00.114Z,101741.31
2022-12-26T12:18:47.291Z,101739.66
2022-12-26T12:22:00.905Z,101740.09
2022-12-26T12:24:36.833Z,101741.28
2022-12-26T12:27:38.386Z,101731.44
2022-12-26T12:30:20.622Z,101741.00
2022-12-26T12:33:06.059Z,101739.13
2022-12-26T12:35:41.862Z,101730.97
2022-12-26T12:38:27.625Z,101729.13
2022-12-26T12:41:22.507Z,101738.94
2022-12-26T12:43:52.308Z,101736.28
2022-12-26T12:46:53.190Z,101747.75
2022-12-26T12:49:28.758Z,101758.88
2022-12-26T12:52:28.982Z,101748.63
2022-12-26T12:55:01.542Z,101745.25
2022-12-26T12:57:51.246Z,101737.84
2022-12-26T13:00:21.827Z,101734.53
2022-12-26T13:03:12.008Z,101738.97
2022-12-26T13:05:44.821Z,101742.44
2022-12-26T13:08:22.655Z,101739.94
2022-12-26T13:10:58.228Z,101735.50
2022-12-26T13:13:29.899Z,101730.91
2022-12-26T13:16:03.806Z,101733.41
2022-12-26T13:18:37.878Z,101742.28
2022-12-26T13:21:11.790Z,101742.59
2022-12-26T13:24:04.311Z,101749.78
2022-12-26T13:26:49.044Z,101740.63
2022-12-26T13:29:44.761Z,101740.72
2022-12-26T13:32:41.924Z,101740.94
2022-12-26T13:35:49.260Z,101748.88
2022-12-26T13:38:16.313Z,101742.66
2022-12-26T13:40:50.021Z,101736.34
2022-12-26T13:43:42.517Z,101738.25
2022-12-26T13:46:51.346Z,101732.13
2022-12-26T13:49:36.627Z,101741.81
2022-12-26T13:52:12.427Z,101739.06
2022-12-26T13:54:48.353Z,101735.19
2022-12-26T13:57:40.338Z,101731.09
2022-12-26T14:00:09.624Z,101725.78
2022-12-26T14:03:17.206Z,101740.59
2022-12-26T14:06:05.120Z,101740.72
2022-12-26T14:08:39.992Z,101735.44
2022-12-26T14:11:16.211Z,101742.25
2022-12-26T14:14:19.881Z,101744.84
2022-12-26T14:16:46.760Z,101737.41
2022-12-26T14:19:35.015Z,101743.38
2022-12-26T14:22:36.648Z,101743.28
2022-12-26T14:25:26.878Z,101728.81
2022-12-26T14:28:10.795Z,101728.22
2022-12-26T14:30:50.072Z,101722.22
2022-12-26T14:33:46.898Z,101716.25
2022-12-26T14:36:26.414Z,101715.28
2022-12-26T14:39:19.569Z,101707.41
2022-12-26T14:42:26.682Z,101719.38
2022-12-26T14:44:59.021Z,101712.03
2022-12-26T14:47:48.039Z,101711.16
2022-12-26T14:50:33.203Z,101710.34
2022-12-26T14:53:27.704Z,101706.69
2022-12-26T14:56:14.397Z,101706.66
2022-12-26T14:58:48.237Z,101707.41
2022-12-26T15:01:18.680Z,101715.06
2022-12-26T15:04:16.770Z,101702.22
2022-12-26T15:06:46.613Z,101709.41
2022-12-26T15:09:25.778Z,101707.72
2022-12-26T15:12:27.590Z,101701.41
2022-12-26T15:15:19.319Z,101703.00
2022-12-26T15:18:04.103Z,101706.13
2022-12-26T15:21:01.283Z,101703.69
2022-12-26T15:23:58.527Z,101697.53
2022-12-26T15:26:44.197Z,101708.84
2022-12-26T15:29:29.321Z,101703.75
2022-12-26T15:32:04.545Z,101705.72
2022-12-26T15:34:36.751Z,101706.63
2022-12-26T15:37:18.428Z,101707.19
2022-12-26T15:40:03.419Z,101706.72
2022-12-26T15:42:36.292Z,101701.72
2022-12-26T15:45:27.724Z,101700.13
2022-12-26T15:48:13.714Z,101704.00
2022-12-26T15:51:05.497Z,101703.53
2022-12-26T15:53:44.301Z,101699.19
2022-12-26T15:56:23.527Z,101700.03
2022-12-26T15:59:09.146Z,101703.66
2022-12-26T16:01:40.216Z,101704.63
2022-12-26T16:04:17.926Z,101701.28
2022-12-26T16:07:15.001Z,101703.53
2022-12-26T16:09:44.008Z,101700.31
2022-12-26T16:12:23.233Z,101709.06
2022-12-26T16:14:51.125Z,101715.91
2022-12-26T16:17:21.947Z,101716.34
2022-12-26T16:19:51.486Z,101711.00
2022-12-26T16:22:44.597Z,101710.38
2022-12-26T16:25:26.615Z,101706.72
2022-12-26T16:27:56.810Z,101702.66
2022-12-26T16:30:44.094Z,101703.69
2022-12-26T16:33:14.857Z,101703.31
2022-12-26T16:35:43.210Z,101704.31
2022-12-26T16:38:17.033Z,101709.94
2022-12-26T16:40:44.916Z,101706.81
2022-12-26T16:43:17.874Z,101708.34
2022-12-26T16:45:48.152Z,101705.16
2022-12-26T16:48:18.659Z,101707.09
2022-12-26T16:50:55.129Z,101699.97
2022-12-26T16:53:43.135Z,101704.19
2022-12-26T16:56:25.161Z,101695.34
2022-12-26T16:59:04.661Z,101700.59
2022-12-26T17:01:33.338Z,101703.59
2022-12-26T17:04:26.234Z,101705.31
2022-12-26T17:07:08.124Z,101699.28
2022-12-26T17:09:49.831Z,101694.91
2022-12-26T17:12:24.371Z,101695.78
2022-12-26T17:14:53.279Z,101696.28
2022-12-26T17:17:23.187Z,101693.19
2022-12-26T17:19:54.388Z,101686.88
2022-12-26T17:22:32.155Z,101689.88
2022-12-26T17:25:17.453Z,101681.44
2022-12-26T17:27:45.667Z,101678.06
2022-12-26T17:30:32.361Z,101672.69
2022-12-26T17:33:22.295Z,101675.31
2022-12-26T17:36:52.508Z,101681.72
2022-12-26T17:38:45.057Z,101689.63
2022-12-26T17:41:15.959Z,101682.94
2022-12-26T17:43:43.949Z,101679.66
2022-12-26T17:46:13.882Z,101678.91
2022-12-26T17:48:42.188Z,101676.50
2022-12-26T17:51:15.803Z,101674.75
2022-12-26T17:53:47.482Z,101668.59
2022-12-26T17:56:17.997Z,101661.38
2022-12-26T17:58:44.979Z,101662.38
2022-12-26T18:01:17.516Z,101658.88
2022-12-26T18:03:47.557Z,101660.63
2022-12-26T18:06:17.444Z,101664.91
2022-12-26T18:08:44.603Z,101672.75
2022-12-26T18:11:14.054Z,101670.44
2022-12-26T18:13:41.969Z,101660.69
2022-12-26T18:16:18.821Z,101666.97
2022-12-26T18:18:47.454Z,101658.16
2022-12-26T18:21:15.875Z,101659.84
2022-12-26T18:23:43.336Z,101656.72
2022-12-26T18:26:26.515Z,101650.69
2022-12-26T18:28:54.240Z,101654.16
2022-12-26T18:31:21.859Z,101658.22
2022-12-26T18:33:48.907Z,101664.81
2022-12-26T18:36:17.380Z,101663.38
2022-12-26T18:38:44.775Z,101653.78
2022-12-26T18:41:16.680Z,101649.25
2022-12-26T18:43:43.666Z,101648.56
2022-12-26T18:46:30.945Z,101650.22
2022-12-26T18:48:58.153Z,101657.00
2022-12-26T18:51:26.446Z,101663.88
2022-12-26T18:53:53.999Z,101654.25
2022-12-26T18:56:23.001Z,101656.91
2022-12-26T18:58:57.158Z,101655.06
2022-12-26T19:01:25.415Z,101651.47
2022-12-26T19:03:53.964Z,101644.50
2022-12-26T19:06:26.770Z,101640.72
2022-12-26T19:08:53.801Z,101647.78
2022-12-26T19:11:20.992Z,101644.44
2022-12-26T19:13:48.019Z,101633.13
2022-12-26T19:16:15.025Z,101634.97
2022-12-26T19:18:42.002Z,101632.34
2022-12-26T19:21:15.988Z,101626.63
2022-12-26T19:23:46.847Z,101624.22
2022-12-26T19:26:16.396Z,101614.56
2022-12-26T19:28:43.421Z,101610.34
2022-12-26T19:31:15.258Z,101605.28
2022-12-26T19:33:42.554Z,101601.19
2022-12-26T19:36:10.164Z,101596.56
2022-12-26T19:38:37.646Z,101593.16
2022-12-26T19:41:13.993Z,101595.44
2022-12-26T19:43:41.342Z,101595.56
2022-12-26T19:46:11.471Z,101593.78
2022-12-26T19:48:39.491Z,101583.41
2022-12-26T19:51:09.292Z,101588.69
2022-12-26T19:53:37.401Z,101594.56
2022-12-26T19:56:13.574Z,101599.59
2022-12-26T19:58:40.916Z,101598.13
2022-12-26T20:01:13.399Z,101600.78
2022-12-26T20:03:41.248Z,101599.28
2022-12-26T20:06:15.829Z,101597.28
2022-12-26T20:08:43.807Z,101588.31
2022-12-26T20:11:13.888Z,101591.75
2022-12-26T20:13:42.779Z,101593.00
2022-12-26T20:16:46.032Z,101587.16
2022-12-26T20:19:03.399Z,101584.03
2022-12-26T20:21:30.429Z,101588.53
2022-12-26T20:23:58.852Z,101590.94
2022-12-26T20:26:26.485Z,101583.94
2022-12-26T20:28:57.344Z,101581.25
2022-12-26T20:31:24.474Z,101580.59
2022-12-26T20:33:52.556Z,101587.56
2022-12-26T20:36:25.526Z,101579.81
2022-12-26T20:38:54.468Z,101572.22
2022-12-26T20:41:21.486Z,101576.53
2022-12-26T20:43:49.625Z,101573.00
2022-12-26T20:46:25.441Z,101571.50
2022-12-26T20:48:53.021Z,101572.97
2022-12-26T20:51:23.391Z,101578.94
2022-12-26T20:53:51.799Z,101569.31
2022-12-26T20:56:19.167Z,101564.97
2022-12-26T20:58:46.380Z,101564.19
2022-12-26T21:01:19.371Z,101563.47
2022-12-26T21:03:47.238Z,101565.81
2022-12-26T21:06:23.363Z,101562.47
2022-12-26T21:08:51.944Z,101558.34
2022-12-26T21:11:26.260Z,101557.44
2022-12-26T21:14:00.570Z,101548.50
2022-12-26T21:16:37.267Z,101550.38
2022-12-26T21:19:09.353Z,101547.50
2022-12-26T21:21:41.040Z,101551.03
2022-12-26T21:24:13.079Z,101541.56
2022-12-26T21:26:42.162Z,101536.41
2022-12-26T21:29:14.028Z,101541.25
2022-12-26T21:31:41.554Z,101542.50
2022-12-26T21:34:08.937Z,101541.13
2022-12-26T21:36:36.340Z,101534.34
2022-12-26T21:39:09.154Z,101528.00
2022-12-26T21:41:39.112Z,101532.75
2022-12-26T21:44:06.046Z,101532.06
2022-12-26T21:46:34.246Z,101529.25
2022-12-26T21:49:01.366Z,101519.56
2022-12-26T21:51:29.821Z,101517.59
2022-12-26T21:54:16.650Z,101518.16
2022-12-26T21:56:43.676Z,101515.47
2022-12-26T21:59:29.343Z,101516.31
2022-12-26T22:01:56.692Z,101510.75
2022-12-26T22:04:23.905Z,101505.53
2022-12-26T22:06:52.978Z,101506.09
2022-12-26T22:09:19.911Z,101506.47
2022-12-26T22:12:06.170Z,101503.84
2022-12-26T22:14:34.634Z,101504.34
2022-12-26T22:17:01.637Z,101498.94
2022-12-26T22:19:28.673Z,101490.31
2022-12-26T22:21:55.686Z,101494.75
2022-12-26T22:24:22.652Z,101486.09
2022-12-26T22:26:49.843Z,101487.97
2022-12-26T22:29:17.009Z,101478.94
2022-12-26T22:31:44.089Z,101477.72
2022-12-26T22:34:13.632Z,101473.69
2022-12-26T22:36:41.359Z,101473.41
2022-12-26T22:39:10.043Z,101469.78
2022-12-26T22:41:37.641Z,101464.38
2022-12-26T22:44:04.799Z,101466.56
2022-12-26T22:46:31.770Z,101461.75
2022-12-26T22:48:58.728Z,101458.72
2022-12-26T22:51:26.411Z,101457.50
2022-12-26T22:53:54.945Z,101449.06
2022-12-26T22:56:21.838Z,101454.38
2022-12-26T22:58:53.256Z,101458.19
2022-12-26T23:01:20.749Z,101451.19
2022-12-26T23:03:48.125Z,101449.13
2022-12-26T23:06:20.711Z,101444.00
2022-12-26T23:08:49.042Z,101434.56
2022-12-26T23:11:16.461Z,101444.28
2022-12-26T23:13:44.757Z,101441.03
2022-12-26T23:16:27.239Z,101440.75
2022-12-26T23:19:18.690Z,101437.78
2022-12-26T23:21:50.520Z,101434.34
2022-12-26T23:24:19.349Z,101433.69
2022-12-26T23:26:50.350Z,101433.97
2022-12-26T23:29:38.255Z,101432.63
2022-12-26T23:32:07.292Z,101429.66
2022-12-26T23:34:34.606Z,101427.69
2022-12-26T23:37:02.236Z,101428.03
2022-12-26T23:39:29.791Z,101425.53
2022-12-26T23:41:56.777Z,101423.59
2022-12-26T23:44:23.668Z,101423.00
2022-12-26T23:46:50.702Z,101422.53
2022-12-26T23:49:17.707Z,101426.06
2022-12-26T23:51:44.725Z,101415.66
2022-12-26T23:54:11.663Z,101417.72
2022-12-26T23:56:38.667Z,101423.88
2022-12-26T23:59:06.006Z,101423.69
